Terminal Aerodrome Forecast
Issued by NWS Lake Charles, LA

Home | Current Version | Previous Version | Text Only | Print | Product List | Glossary On
Versions: 1 2 3 4 5 6 7 8 9 10 11 12 13 14 15 16 17 18 19 20 21
000
FTUS44 KLCH 180520
TAFLFT
TAF
KLFT 180520Z 1806/1906 00000KT 1/4SM FG VCTS OVC002CB
     FM181600 VRB05KT P6SM VCTS BKN008 OVC017CB
     FM182300 07003KT 4SM BR OVC003=

USA.gov is the U.S. government's official web portal to all federal, state and local government web resources and services.